Time;durP1;ratioP1;P1;durP2;ratioP2;P2;SDS_P1;SDS_P2;PMS_P1;PMS_P2;Temp;Humidity;BMP_temperature;BMP_pressure;BME280_temperature;BME280_humidity;BME280_pressure;Samples;Min_cycle;Max_cycle;Signal;HPM_P1;HPM_P2
2022/11/10 00:00:41;;;;;;;;;19.33;17.00;;;;;12.85;66.62;101759.88;5057691;28;46101;-43
2022/11/10 00:03:09;;;;;;;;;24.67;23.33;;;;;12.86;66.99;101761.59;5057886;28;45418;-43
2022/11/10 00:05:38;;;;;;;;;22.00;19.67;;;;;12.84;67.36;101761.69;5058004;28;45393;-51
2022/11/10 00:08:05;;;;;;;;;19.67;16.00;;;;;12.73;67.17;101752.00;5058077;28;45458;-41
2022/11/10 00:10:31;;;;;;;;;21.00;15.33;;;;;12.80;67.45;101780.81;5057650;28;46390;-44
2022/11/10 00:13:01;;;;;;;;;24.00;18.33;;;;;12.70;67.33;101765.59;5056336;28;45510;-43
2022/11/10 00:18:11;;;;;;;;;18.33;17.67;;;;;12.75;67.37;101765.19;5058123;28;45387;-42
2022/11/10 00:20:36;;;;;;;;;23.33;19.33;;;;;12.77;67.51;101775.72;5057548;28;45904;-42
2022/11/10 00:23:01;;;;;;;;;21.33;19.00;;;;;12.74;67.14;101780.38;5057720;28;45331;-40
2022/11/10 00:25:27;;;;;;;;;20.33;15.33;;;;;12.69;67.57;101793.28;5056566;28;45355;-42
2022/11/10 00:27:52;;;;;;;;;23.33;19.33;;;;;12.72;67.98;101797.50;5056493;28;45380;-41
2022/11/10 00:30:17;;;;;;;;;24.67;20.00;;;;;12.76;67.85;101798.06;5057300;28;47125;-41
2022/11/10 00:32:45;;;;;;;;;20.00;20.00;;;;;12.80;67.25;101799.50;5057510;28;45437;-41
2022/11/10 00:35:10;;;;;;;;;17.67;16.33;;;;;12.80;67.40;101799.50;5057632;28;45347;-41
2022/11/10 00:37:35;;;;;;;;;22.33;18.67;;;;;12.74;67.27;101807.06;5056877;28;45310;-42
2022/11/10 00:40:01;;;;;;;;;19.67;19.33;;;;;12.70;67.21;101808.31;5056798;28;46134;-41
2022/11/10 00:42:26;;;;;;;;;19.00;15.00;;;;;12.66;67.27;101808.72;5057355;28;45350;-41
2022/11/10 00:44:51;;;;;;;;;24.33;22.00;;;;;12.58;67.71;101812.06;5057281;28;45367;-42
2022/11/10 00:47:17;;;;;;;;;28.00;21.33;;;;;12.51;67.51;101807.38;5057389;28;45264;-43
2022/11/10 00:49:42;;;;;;;;;18.67;18.67;;;;;12.44;67.88;101813.28;5057021;28;45938;-42
2022/11/10 00:52:07;;;;;;;;;25.33;21.33;;;;;12.38;67.85;101811.13;5056976;28;45495;-43
2022/11/10 00:54:33;;;;;;;;;21.00;18.33;;;;;12.35;67.86;101813.22;5057168;28;45370;-40
2022/11/10 00:56:58;;;;;;;;;25.67;21.67;;;;;12.29;68.41;101816.41;5057425;28;45378;-41
2022/11/10 00:59:23;;;;;;;;;26.00;20.00;;;;;12.21;68.69;101815.22;5057182;28;45430;-42
2022/11/10 01:01:49;;;;;;;;;22.67;19.00;;;;;12.16;68.60;101812.13;5056700;28;45446;-42
2022/11/10 01:04:14;;;;;;;;;26.33;19.67;;;;;12.14;68.69;101824.75;5056869;28;45770;-41
2022/11/10 01:06:39;;;;;;;;;20.67;18.00;;;;;12.16;69.03;101827.28;5057072;28;45382;-41
2022/11/10 01:09:05;;;;;;;;;24.00;21.33;;;;;12.13;68.48;101828.38;5056922;28;45216;-42
2022/11/10 01:11:30;;;;;;;;;26.00;22.67;;;;;12.09;69.11;101826.09;5057021;28;45424;-42
2022/11/10 01:13:56;;;;;;;;;21.00;18.33;;;;;12.10;69.24;101826.00;5057175;28;45521;-41
2022/11/10 01:16:30;;;;;;;;;22.33;19.00;;;;;12.09;69.36;101834.09;5057015;28;45312;-41
2022/11/10 01:18:59;;;;;;;;;17.67;14.33;;;;;12.07;68.80;101834.25;5056683;28;46006;-41
2022/11/10 01:21:26;;;;;;;;;28.67;22.33;;;;;12.04;68.97;101831.81;5056577;28;45222;-42
2022/11/10 01:23:51;;;;;;;;;26.33;20.00;;;;;12.02;69.00;101835.63;5056610;28;45315;-42
2022/11/10 01:26:18;;;;;;;;;28.00;19.33;;;;;11.97;69.28;101834.19;5056680;28;45314;-42
2022/11/10 01:28:44;;;;;;;;;19.00;17.33;;;;;12.01;69.12;101833.91;5056427;28;47289;-41
2022/11/10 01:31:13;;;;;;;;;21.00;19.33;;;;;12.01;69.29;101839.22;5056371;28;45449;-42
2022/11/10 01:33:39;;;;;;;;;21.67;19.67;;;;;12.00;69.42;101846.38;5056403;28;45375;-41
2022/11/10 01:36:05;;;;;;;;;19.67;18.67;;;;;11.99;69.12;101848.22;5056602;28;45405;-43
2022/11/10 01:38:35;;;;;;;;;30.33;21.33;;;;;11.97;69.82;101841.34;5056378;28;46530;-42
2022/11/10 01:41:02;;;;;;;;;21.00;17.67;;;;;11.99;69.67;101855.38;5056242;28;45224;-42
2022/11/10 01:43:27;;;;;;;;;28.33;22.33;;;;;11.91;69.20;101831.16;5056439;28;45302;-41
2022/11/10 01:46:01;;;;;;;;;21.67;16.67;;;;;12.00;68.88;101859.72;5056449;28;45154;-41
2022/11/10 01:48:51;;;;;;;;;25.33;22.33;;;;;11.94;69.08;101860.25;5056042;28;46250;-42
2022/11/10 01:51:27;;;;;;;;;20.33;17.33;;;;;11.86;69.22;101857.38;5059585;28;45300;-41
2022/11/10 01:53:58;;;;;;;;;21.67;19.33;;;;;11.84;69.17;101867.31;5059804;28;45478;-41
2022/11/10 01:56:27;;;;;;;;;20.67;19.00;;;;;11.79;69.39;101866.81;5060046;28;45392;-41
2022/11/10 01:58:59;;;;;;;;;18.33;17.33;;;;;11.79;69.61;101872.16;5059357;28;45401;-43
2022/11/10 02:01:25;;;;;;;;;24.33;17.00;;;;;11.73;69.92;101874.34;5059471;28;45370;-42
2022/11/10 02:03:56;;;;;;;;;30.00;21.00;;;;;11.69;70.04;101878.25;5059717;28;45345;-42
2022/11/10 02:06:25;;;;;;;;;24.67;21.33;;;;;11.66;69.98;101873.16;5060044;28;45236;-42
2022/11/10 02:08:52;;;;;;;;;22.67;18.33;;;;;11.65;70.04;101878.63;5058148;28;47421;-42
2022/11/10 02:11:18;;;;;;;;;16.67;14.33;;;;;11.52;70.32;101859.28;5059370;28;45339;-41
2022/11/10 02:13:44;;;;;;;;;29.33;21.67;;;;;11.58;70.39;101875.59;5059567;28;45370;-41
2022/11/10 02:16:10;;;;;;;;;21.00;17.33;;;;;11.56;70.46;101876.72;5059387;28;45450;-42
2022/11/10 02:18:36;;;;;;;;;20.67;17.00;;;;;11.54;70.35;101876.81;5059416;28;46017;-42
2022/11/10 02:21:03;;;;;;;;;23.33;20.33;;;;;11.52;70.59;101884.13;5059124;28;45445;-41
2022/11/10 02:23:29;;;;;;;;;13.67;12.00;;;;;11.46;70.32;101882.81;5059392;28;45227;-44
2022/11/10 02:25:55;;;;;;;;;22.67;18.67;;;;;11.43;70.64;101879.53;5059659;28;45244;-42
2022/11/10 02:28:21;;;;;;;;;21.67;19.67;;;;;11.33;70.52;101866.09;5059419;28;47319;-42
2022/11/10 02:30:46;;;;;;;;;18.33;17.33;;;;;11.37;70.78;101878.19;5059270;28;45330;-42
2022/11/10 02:33:11;;;;;;;;;21.67;15.33;;;;;11.38;70.69;101874.59;5059184;28;45410;-42
2022/11/10 02:35:37;;;;;;;;;18.33;16.00;;;;;11.35;71.04;101877.50;5059513;28;45515;-42
2022/11/10 02:38:02;;;;;;;;;14.33;13.00;;;;;11.36;70.99;101875.66;5059092;28;46237;-43
2022/11/10 02:40:27;;;;;;;;;23.00;17.33;;;;;11.33;70.57;101881.22;5059107;28;45309;-41
2022/11/10 02:42:53;;;;;;;;;19.00;14.67;;;;;11.31;70.76;101885.84;5059185;28;45352;-41
2022/11/10 02:45:18;;;;;;;;;20.67;16.00;;;;;11.28;70.84;101878.94;5059298;28;45244;-41
2022/11/10 02:47:43;;;;;;;;;16.67;14.00;;;;;11.28;70.71;101883.44;5058822;28;45295;-42
2022/11/10 02:50:09;;;;;;;;;20.67;16.00;;;;;11.28;71.17;101894.09;5058825;28;45309;-42
2022/11/10 02:52:34;;;;;;;;;23.33;17.33;;;;;11.24;71.01;101889.00;5058969;28;45398;-42
2022/11/10 02:54:59;;;;;;;;;21.67;16.67;;;;;11.21;71.36;101883.94;5059485;28;45275;-42
2022/11/10 02:57:25;;;;;;;;;22.33;14.67;;;;;11.23;71.41;101892.63;5059009;28;46050;-41
2022/11/10 02:59:50;;;;;;;;;13.00;12.67;;;;;11.26;71.40;101891.56;5058945;28;45233;-41
2022/11/10 03:02:15;;;;;;;;;17.67;11.33;;;;;11.25;71.20;101892.53;5057846;28;45346;-42
2022/11/10 03:04:41;;;;;;;;;18.33;16.00;;;;;11.22;71.63;101896.28;5059166;28;45308;-42
2022/11/10 03:07:06;;;;;;;;;18.33;15.00;;;;;11.21;71.63;101896.41;5058744;28;45288;-43
2022/11/10 03:09:32;;;;;;;;;11.67;11.33;;;;;11.18;71.48;101884.16;5058641;28;45470;-44
2022/11/10 03:11:57;;;;;;;;;15.33;15.00;;;;;11.26;71.51;101893.38;5058774;28;45340;-41
2022/11/10 03:14:22;;;;;;;;;14.00;13.00;;;;;11.27;71.84;101901.22;5058883;28;45431;-42
2022/11/10 03:16:48;;;;;;;;;13.00;13.00;;;;;11.28;71.88;101897.59;5058319;28;47001;-43
2022/11/10 03:19:13;;;;;;;;;19.33;13.00;;;;;11.26;72.04;101886.22;5058627;28;45221;-43
2022/11/10 03:21:38;;;;;;;;;19.33;13.00;;;;;11.29;71.49;101896.63;5058579;28;45398;-42
2022/11/10 03:24:04;;;;;;;;;14.00;12.33;;;;;11.28;71.60;101897.59;5058746;28;45444;-42
2022/11/10 03:26:29;;;;;;;;;15.67;12.00;;;;;11.20;71.99;101892.88;5058249;28;47098;-42
2022/11/10 03:28:55;;;;;;;;;14.67;12.00;;;;;11.16;72.08;101895.91;5058263;28;45338;-43
2022/11/10 03:31:20;;;;;;;;;15.33;15.33;;;;;11.08;72.66;101899.19;5058479;28;45237;-43
2022/11/10 03:33:45;;;;;;;;;16.33;12.33;;;;;11.16;72.16;101907.41;5058561;28;45526;-42
2022/11/10 03:36:11;;;;;;;;;16.67;12.67;;;;;11.18;71.94;101909.97;5058278;28;47103;-41
2022/11/10 03:38:36;;;;;;;;;14.67;13.67;;;;;11.16;72.12;101901.22;5058208;28;45494;-42
2022/11/10 03:41:01;;;;;;;;;12.33;12.33;;;;;11.13;71.79;101904.16;5058451;28;45288;-42
2022/11/10 03:43:26;;;;;;;;;13.00;10.33;;;;;11.08;72.02;101906.31;5058329;28;45383;-42
2022/11/10 03:45:52;;;;;;;;;12.00;10.00;;;;;11.06;72.18;101914.44;5057880;28;47321;-42
2022/11/10 03:48:17;;;;;;;;;16.33;14.00;;;;;11.03;72.52;101917.34;5057966;28;45313;-42
2022/11/10 03:50:42;;;;;;;;;12.00;12.00;;;;;11.04;72.25;101915.50;5057850;28;45438;-42
2022/11/10 03:53:08;;;;;;;;;13.00;12.00;;;;;11.03;72.39;101913.81;5058145;28;45493;-41
2022/11/10 03:55:33;;;;;;;;;13.67;11.67;;;;;11.03;72.18;101913.81;5057745;28;46394;-41
2022/11/10 03:58:03;;;;;;;;;14.33;10.00;;;;;11.00;72.48;101917.59;5057748;28;45352;-42
2022/11/10 04:00:29;;;;;;;;;15.67;11.33;;;;;10.99;72.57;101926.53;5057997;28;45318;-42
2022/11/10 04:02:54;;;;;;;;;15.33;11.00;;;;;11.00;72.24;101930.91;5057672;28;45562;-43
2022/11/10 04:10:56;;;;;;;;;14.00;11.67;;;;;10.97;72.25;101928.47;5057887;28;45402;-42
2022/11/10 04:16:05;;;;;;;;;11.67;11.33;;;;;10.91;72.23;101935.13;5057514;28;45405;-42
2022/11/10 04:18:30;;;;;;;;;13.67;11.00;;;;;10.92;72.56;101928.00;5057441;28;45255;-41
2022/11/10 04:21:00;;;;;;;;;12.33;11.33;;;;;10.86;72.52;101920.47;5057873;28;45316;-42
2022/11/10 04:23:33;;;;;;;;;12.00;10.33;;;;;10.89;72.76;101931.72;5057838;28;45521;-41
2022/11/10 04:28:44;;;;;;;;;13.67;10.33;;;;;10.82;72.67;101921.69;5057423;28;45267;-41
2022/11/10 04:31:10;;;;;;;;;15.33;10.00;;;;;10.87;72.63;101935.47;5057340;28;45241;-41
2022/11/10 04:33:36;;;;;;;;;10.33;10.33;;;;;10.90;72.65;101952.06;5057577;28;45350;-41
2022/11/10 04:36:02;;;;;;;;;9.33;9.33;;;;;10.91;72.61;101952.91;5057227;28;46370;-41
2022/11/10 04:38:27;;;;;;;;;11.67;10.00;;;;;10.85;73.05;101948.06;5057394;28;45261;-42
2022/11/10 04:40:52;;;;;;;;;11.00;11.00;;;;;10.83;73.06;101949.97;5057402;28;45359;-42
2022/11/10 04:43:18;;;;;;;;;10.33;10.33;;;;;10.81;72.96;101958.09;5057446;28;45452;-42
2022/11/10 04:45:43;;;;;;;;;10.67;9.67;;;;;10.71;73.27;101955.31;5057462;28;46069;-42
2022/11/10 04:48:08;;;;;;;;;14.00;11.33;;;;;10.65;73.25;101957.59;5057416;28;45386;-42
2022/11/10 04:50:34;;;;;;;;;11.00;11.00;;;;;10.65;73.57;101963.75;5057667;28;45560;-43
2022/11/10 04:52:59;;;;;;;;;15.00;11.33;;;;;10.66;73.30;101970.78;5057530;28;45408;-43
2022/11/10 04:55:25;;;;;;;;;12.67;11.00;;;;;10.67;73.43;101972.47;5057321;28;45311;-41
2022/11/10 04:57:51;;;;;;;;;15.33;13.33;;;;;10.67;73.36;101975.13;5057056;28;45363;-41
2022/11/10 05:00:17;;;;;;;;;9.33;9.33;;;;;10.65;73.48;101979.72;5057172;28;45224;-42
2022/11/10 05:02:42;;;;;;;;;12.33;11.00;;;;;10.67;73.50;101980.47;5057199;28;45568;-42
2022/11/10 05:05:08;;;;;;;;;13.00;8.67;;;;;10.66;73.22;101973.44;5056908;28;45969;-42
2022/11/10 05:07:33;;;;;;;;;12.00;10.67;;;;;10.69;73.36;101978.50;5057031;28;45230;-41
2022/11/10 05:09:59;;;;;;;;;14.33;8.67;;;;;10.69;73.25;101986.50;5057061;28;45277;-42
2022/11/10 05:12:24;;;;;;;;;14.00;11.00;;;;;10.72;73.11;101991.59;5057389;28;45325;-41
2022/11/10 05:14:49;;;;;;;;;14.67;11.33;;;;;10.67;73.27;101996.44;5056767;28;47060;-41
2022/11/10 05:17:15;;;;;;;;;12.00;9.33;;;;;10.69;72.98;101997.16;5056284;28;45182;-40
2022/11/10 05:19:40;;;;;;;;;14.33;10.33;;;;;10.73;72.84;102003.09;5057125;28;45375;-42
2022/11/10 05:22:06;;;;;;;;;16.67;12.00;;;;;10.73;72.83;102008.41;5056969;28;45417;-43
2022/11/10 05:24:32;;;;;;;;;11.67;10.00;;;;;10.71;72.83;102005.88;5057588;28;46282;-42
2022/11/10 05:26:57;;;;;;;;;20.00;11.33;;;;;10.67;73.02;102015.06;5060185;28;45352;-42
2022/11/10 05:29:22;;;;;;;;;15.00;13.00;;;;;10.65;72.96;102013.47;5060482;28;45314;-42
2022/11/10 05:31:48;;;;;;;;;15.00;11.33;;;;;10.65;72.88;102024.97;5060301;28;45359;-42
2022/11/10 05:34:13;;;;;;;;;17.00;11.33;;;;;10.61;72.70;102027.97;5060159;28;45406;-42
2022/11/10 05:36:38;;;;;;;;;12.67;10.67;;;;;10.52;72.61;102018.88;5060058;28;45342;-42
2022/11/10 05:39:04;;;;;;;;;10.33;7.00;;;;;10.57;72.90;102029.16;5060177;28;45871;-42
2022/11/10 05:41:29;;;;;;;;;11.67;10.00;;;;;10.56;72.89;102030.97;5060248;28;45332;-41
2022/11/10 05:43:54;;;;;;;;;2.33;0.00;;;;;10.56;72.84;102035.44;5059942;28;45935;-43
2022/11/10 05:46:20;;;;;;;;;14.33;11.33;;;;;10.55;73.05;102037.28;5059764;28;45252;-42
2022/11/10 05:48:46;;;;;;;;;13.00;11.67;;;;;10.55;72.77;102045.25;5060138;28;45441;-42
2022/11/10 05:51:11;;;;;;;;;10.67;10.33;;;;;10.56;72.73;102036.28;5060327;28;45425;-41
2022/11/10 05:53:36;;;;;;;;;14.00;13.00;;;;;10.55;72.76;102039.94;5059903;28;45333;-43
2022/11/10 05:56:02;;;;;;;;;10.33;8.33;;;;;10.53;72.98;102039.19;5059828;28;45317;-42
2022/11/10 05:58:27;;;;;;;;;17.00;11.00;;;;;10.54;72.64;102045.38;5059971;28;45239;-42
2022/11/10 06:00:53;;;;;;;;;14.00;11.33;;;;;10.51;72.95;102042.94;5060214;28;45406;-42
2022/11/10 06:03:18;;;;;;;;;14.33;11.33;;;;;10.54;73.02;102043.56;5059511;28;45916;-43
2022/11/10 06:05:44;;;;;;;;;15.00;9.33;;;;;10.52;72.93;102047.28;5059775;28;45338;-42
2022/11/10 06:08:10;;;;;;;;;15.00;12.00;;;;;10.47;73.01;102048.47;5059774;28;45281;-42
2022/11/10 06:10:36;;;;;;;;;13.33;9.67;;;;;10.43;72.88;102041.69;5059770;28;45239;-42
2022/11/10 06:13:03;;;;;;;;;15.67;12.00;;;;;10.42;72.81;102041.81;5059210;28;46198;-42
2022/11/10 06:15:28;;;;;;;;;12.67;11.33;;;;;10.36;73.30;102050.22;5059319;28;45287;-42
2022/11/10 06:17:56;;;;;;;;;16.00;14.00;;;;;10.32;73.21;102051.41;5059328;28;45459;-42
2022/11/10 06:20:22;;;;;;;;;11.00;10.67;;;;;10.31;73.63;102061.22;5059985;28;45554;-42
2022/11/10 06:23:05;;;;;;;;;14.33;10.67;;;;;10.33;73.39;102055.78;5059086;28;45416;-41
2022/11/10 06:25:33;;;;;;;;;16.33;14.00;;;;;10.34;73.22;102062.81;5059269;28;45377;-42
2022/11/10 06:27:58;;;;;;;;;20.33;12.00;;;;;10.33;73.44;102055.78;5059456;28;45320;-41
2022/11/10 06:30:25;;;;;;;;;10.67;10.00;;;;;10.32;73.59;102054.91;5059509;28;45210;-42
2022/11/10 06:32:51;;;;;;;;;13.00;11.00;;;;;10.30;72.97;102056.00;5059030;28;47230;-41
2022/11/10 06:35:16;;;;;;;;;19.33;15.00;;;;;10.28;73.27;102072.09;5058576;28;45419;-42
2022/11/10 06:37:42;;;;;;;;;14.33;11.67;;;;;10.24;73.31;102071.47;5058374;28;45422;-42
2022/11/10 06:40:09;;;;;;;;;16.00;13.00;;;;;10.27;73.40;102077.50;5059636;28;45441;-42
2022/11/10 06:42:35;;;;;;;;;15.00;11.00;;;;;10.16;73.36;102060.50;5058961;28;46358;-42
2022/11/10 06:45:01;;;;;;;;;10.67;10.00;;;;;10.24;73.47;102084.75;5059068;28;45367;-42
2022/11/10 06:47:27;;;;;;;;;14.33;12.67;;;;;10.21;73.28;102095.59;5058631;28;45519;-41
2022/11/10 06:49:52;;;;;;;;;12.33;11.00;;;;;10.21;73.80;102098.25;5059282;28;45405;-42
2022/11/10 06:52:18;;;;;;;;;14.00;12.67;;;;;10.19;73.83;102104.63;5058683;28;46031;-41
2022/11/10 06:54:44;;;;;;;;;11.67;11.67;;;;;10.16;73.91;102108.38;5058798;28;45352;-42
2022/11/10 06:57:09;;;;;;;;;12.67;11.00;;;;;9.88;73.65;102060.78;5058865;28;45330;-42
2022/11/10 06:59:34;;;;;;;;;20.67;11.00;;;;;10.15;73.28;102111.97;5059024;28;45221;-42
2022/11/10 07:02:00;;;;;;;;;17.00;12.33;;;;;10.17;73.38;102111.88;5074082;28;47184;-42
2022/11/10 07:04:25;;;;;;;;;17.67;13.33;;;;;10.15;73.82;102122.59;5058662;28;45418;-41
2022/11/10 07:06:50;;;;;;;;;18.33;15.33;;;;;10.14;73.29;102128.88;5058995;28;45262;-42
2022/11/10 07:09:16;;;;;;;;;21.00;13.00;;;;;10.14;73.60;102125.38;5057841;28;45423;-42
2022/11/10 07:11:42;;;;;;;;;15.67;11.00;;;;;10.14;73.58;102133.34;5058678;28;46030;-42
2022/11/10 07:14:07;;;;;;;;;16.00;13.67;;;;;10.13;73.59;102132.50;5058446;28;45454;-42
2022/11/10 07:16:33;;;;;;;;;18.33;12.67;;;;;10.08;73.67;102126.69;5057501;28;45357;-43
2022/11/10 07:18:58;;;;;;;;;14.33;11.67;;;;;10.13;73.52;102145.81;5058726;28;45438;-41
2022/11/10 07:21:23;;;;;;;;;17.00;14.67;;;;;10.13;73.30;102153.78;5058374;28;45408;-41
2022/11/10 07:23:49;;;;;;;;;19.67;14.67;;;;;10.09;73.38;102160.28;5058420;28;45395;-42
2022/11/10 07:26:14;;;;;;;;;17.33;15.00;;;;;10.08;73.21;102158.59;5058494;28;45253;-42
2022/11/10 07:28:41;;;;;;;;;12.33;8.67;;;;;10.03;73.34;102150.09;5059012;28;45375;-43
2022/11/10 07:31:06;;;;;;;;;16.33;13.00;;;;;10.01;73.76;102157.31;5058267;28;45339;-42
2022/11/10 07:33:31;;;;;;;;;18.67;16.67;;;;;10.05;73.52;102163.25;5058105;28;45461;-42
2022/11/10 07:36:00;;;;;;;;;18.33;15.33;;;;;10.06;74.08;102165.81;5058577;28;45401;-43
2022/11/10 07:38:25;;;;;;;;;12.00;6.67;;;;;10.06;74.11;102173.78;5058500;28;45224;-44
2022/11/10 07:40:52;;;;;;;;;11.33;10.67;;;;;10.07;74.14;102172.84;5058026;28;45276;-42
2022/11/10 07:43:19;;;;;;;;;15.33;13.33;;;;;10.08;73.75;102179.00;5058107;28;45265;-43
2022/11/10 07:45:44;;;;;;;;;20.00;16.00;;;;;10.05;73.96;102172.09;5058012;28;45399;-43
2022/11/10 07:48:09;;;;;;;;;15.67;13.67;;;;;10.03;74.08;102186.44;5056171;28;45477;-42
2022/11/10 07:50:35;;;;;;;;;24.67;15.00;;;;;10.02;74.07;102185.59;5057768;28;46067;-43
2022/11/10 07:53:04;;;;;;;;;14.33;14.33;;;;;10.04;73.68;102188.16;5056403;28;45479;-42
2022/11/10 07:55:29;;;;;;;;;16.00;11.33;;;;;10.07;74.13;102198.56;5056925;28;45288;-42
2022/11/10 07:57:58;;;;;;;;;19.67;19.00;;;;;10.05;73.97;102198.66;5055913;28;45445;-43
2022/11/10 08:00:24;;;;;;;;;19.33;15.67;;;;;9.88;73.55;102194.53;5055364;28;46359;-43
2022/11/10 08:02:49;;;;;;;;;18.67;15.33;;;;;9.93;73.80;102221.63;5054996;28;45445;-42
2022/11/10 08:05:15;;;;;;;;;24.00;17.00;;;;;9.93;74.34;102220.78;5055450;28;45995;-42
2022/11/10 08:07:41;;;;;;;;;26.33;17.33;;;;;9.95;73.70;102232.19;5055416;28;45465;-43
2022/11/10 08:10:07;;;;;;;;;19.67;16.00;;;;;9.93;73.84;102236.75;5054699;28;45454;-42
2022/11/10 08:12:33;;;;;;;;;23.33;18.33;;;;;9.96;74.40;102249.84;5055074;28;45474;-42
2022/11/10 08:14:58;;;;;;;;;26.33;21.67;;;;;9.98;74.27;102248.75;5054694;28;45746;-42
2022/11/10 08:17:23;;;;;;;;;26.67;23.00;;;;;10.00;73.61;102256.63;5055267;28;45465;-42
2022/11/10 08:19:48;;;;;;;;;26.50;23.00;;;;;9.97;73.92;102263.00;5054646;28;45411;-42
2022/11/10 08:22:14;;;;;;;;;28.50;25.25;;;;;9.98;74.36;102264.69;5054197;28;45582;-42
2022/11/10 08:24:39;;;;;;;;;32.25;25.25;;;;;9.88;74.01;102252.16;5055615;28;45984;-41
2022/11/10 08:27:05;;;;;;;;;34.50;24.25;;;;;9.92;74.56;102270.44;5055282;28;45468;-43
2022/11/10 08:29:30;;;;;;;;;27.75;24.50;;;;;9.92;74.19;102273.13;5054679;28;46894;-41
2022/11/10 08:31:56;;;;;;;;;28.00;25.75;;;;;9.87;74.45;102271.72;5054888;28;45446;-43
2022/11/10 08:34:21;;;;;;;;;31.00;25.00;;;;;9.85;74.73;102285.09;5054580;28;45792;-42
2022/11/10 08:36:47;;;;;;;;;33.00;25.25;;;;;9.78;75.57;102259.09;5054851;28;45483;-42
2022/11/10 08:39:13;;;;;;;;;39.75;30.50;;;;;9.87;75.87;102274.38;5054235;28;45481;-42
2022/11/10 08:41:38;;;;;;;;;35.75;28.75;;;;;9.82;75.31;102271.16;5054415;28;45453;-42
2022/11/10 08:44:04;;;;;;;;;32.75;27.25;;;;;9.86;75.73;102277.97;5054505;28;45537;-44
2022/11/10 08:46:29;;;;;;;;;33.25;25.25;;;;;9.92;75.77;102274.94;5054277;28;45588;-42
2022/11/10 08:48:54;;;;;;;;;32.50;27.75;;;;;10.01;75.38;102271.63;5054658;28;45460;-43
2022/11/10 08:51:21;;;;;;;;;33.25;25.75;;;;;10.01;75.92;102284.91;5054272;28;45474;-41
2022/11/10 08:53:46;;;;;;;;;29.25;26.00;;;;;10.00;75.84;102286.72;5054702;28;45892;-43
2022/11/10 08:56:11;;;;;;;;;39.75;25.50;;;;;10.04;75.95;102286.53;5054371;28;45482;-42
2022/11/10 08:58:37;;;;;;;;;35.00;24.50;;;;;10.07;75.64;102292.50;5053537;28;46188;-42
2022/11/10 09:01:07;;;;;;;;;34.75;26.50;;;;;10.05;75.72;102291.72;5052755;28;45450;-41
2022/11/10 09:03:33;;;;;;;;;39.00;26.25;;;;;10.15;75.66;102308.75;5053948;28;45496;-42
2022/11/10 09:05:58;;;;;;;;;41.00;30.75;;;;;10.19;75.90;102306.72;5053958;28;45475;-42
2022/11/10 09:08:23;;;;;;;;;34.75;31.25;;;;;10.22;75.46;102299.38;5053845;28;45403;-42
2022/11/10 09:10:50;;;;;;;;;39.00;29.00;;;;;10.27;75.68;102306.22;5053712;28;45593;-42
2022/11/10 09:13:16;;;;;;;;;32.25;32.25;;;;;10.31;75.50;102308.56;5054247;28;45438;-42
2022/11/10 09:15:42;;;;;;;;;51.00;35.50;;;;;10.32;75.75;102312.06;5054437;28;45451;-42
2022/11/10 09:18:10;;;;;;;;;37.75;28.75;;;;;10.34;75.82;102318.16;5053395;28;45483;-42
2022/11/10 09:20:36;;;;;;;;;31.75;27.25;;;;;10.39;75.45;102329.31;5050421;28;45517;-42
2022/11/10 09:23:05;;;;;;;;;35.67;25.33;;;;;10.46;75.51;102327.94;5053138;28;45495;-43
2022/11/10 09:25:30;;;;;;;;;34.00;27.00;;;;;10.48;75.25;102316.22;5053980;28;45471;-41
2022/11/10 09:27:56;;;;;;;;;36.00;26.67;;;;;10.57;74.95;102324.53;5053232;28;46014;-42
2022/11/10 09:30:21;;;;;;;;;31.00;25.67;;;;;10.62;74.87;102323.25;5053629;28;45498;-43
2022/11/10 09:32:52;;;;;;;;;34.00;26.67;;;;;10.62;74.98;102317.94;5053837;28;45408;-47
2022/11/10 09:35:18;;;;;;;;;28.67;23.33;;;;;10.82;74.51;102340.44;5053454;28;45599;-42
2022/11/10 09:37:43;;;;;;;;;36.33;25.67;;;;;10.78;74.39;102335.47;5053654;28;45652;-43
2022/11/10 09:40:17;;;;;;;;;37.67;26.33;;;;;10.83;74.69;102335.97;5054060;28;45465;-42
2022/11/10 09:42:45;;;;;;;;;36.67;34.67;;;;;10.87;74.19;102338.34;5051406;28;45536;-42
2022/11/10 09:45:25;;;;;;;;;39.33;33.33;;;;;10.85;74.34;102355.38;5053580;28;45460;-43
2022/11/10 09:48:03;;;;;;;;;49.33;33.33;;;;;10.83;74.47;102351.94;5053207;28;46145;-42
2022/11/10 09:50:37;;;;;;;;;37.67;29.33;;;;;10.83;74.55;102351.94;5052471;28;45881;-43
2022/11/10 09:53:08;;;;;;;;;38.67;27.33;;;;;10.74;74.52;102345.47;5053374;28;46302;-42
2022/11/10 09:55:43;;;;;;;;;29.00;24.00;;;;;10.72;74.61;102350.91;5052569;28;45371;-42
2022/11/10 09:58:11;;;;;;;;;33.67;26.00;;;;;10.74;74.84;102346.34;5053349;28;46176;-42
2022/11/10 10:00:41;;;;;;;;;34.33;25.33;;;;;10.82;74.67;102348.44;5053198;28;45426;-42
2022/11/10 10:03:16;;;;;;;;;38.00;31.67;;;;;10.82;74.54;102355.56;5051301;28;45504;-41
2022/11/10 10:06:05;;;;;;;;;34.67;28.67;;;;;10.77;74.62;102342.59;5052970;28;45625;-43
2022/11/10 10:08:54;;;;;;;;;37.33;28.00;;;;;10.86;74.90;102346.41;5053225;28;47306;-42
2022/11/10 10:11:50;;;;;;;;;32.33;28.00;;;;;10.91;74.69;102366.44;5055312;28;45399;-41
2022/11/10 10:14:41;;;;;;;;;34.67;31.00;;;;;10.95;74.50;102367.91;5056531;28;45513;-42
2022/11/10 10:17:13;;;;;;;;;43.00;32.67;;;;;11.02;75.01;102372.81;5056438;28;45467;-43
2022/11/10 10:19:45;;;;;;;;;38.67;28.33;;;;;11.11;74.69;102370.31;5056510;28;45902;-42
2022/11/10 10:22:31;;;;;;;;;35.67;29.33;;;;;11.17;74.55;102379.72;5053926;28;45581;-43
2022/11/10 10:25:07;;;;;;;;;37.00;32.67;;;;;11.19;74.66;102391.09;5056642;28;45499;-43
2022/11/10 10:27:37;;;;;;;;;31.67;25.00;;;;;11.28;74.57;102389.56;5056555;28;45327;-43
2022/11/10 10:30:11;;;;;;;;;35.00;32.00;;;;;11.35;74.60;102396.16;5056312;28;46482;-43
2022/11/10 10:32:36;;;;;;;;;33.00;28.00;;;;;11.32;74.24;102391.06;5056086;28;45446;-43
2022/11/10 10:35:02;;;;;;;;;37.33;29.00;;;;;11.36;74.78;102392.53;5056272;28;46071;-41
2022/11/10 10:37:48;;;;;;;;;48.00;30.00;;;;;11.37;74.45;102384.41;5056742;28;45439;-42
2022/11/10 10:40:20;;;;;;;;;38.67;26.00;;;;;11.48;74.60;102411.13;5056309;28;45459;-42
2022/11/10 10:42:46;;;;;;;;;26.00;24.00;;;;;11.51;73.94;102412.75;5056407;28;45411;-42
2022/11/10 10:45:15;;;;;;;;;38.67;27.67;;;;;11.51;73.98;102412.75;5056195;28;45418;-42
2022/11/10 10:47:41;;;;;;;;;41.33;27.33;;;;;11.56;74.33;102420.41;5054758;28;45541;-42
2022/11/10 10:50:22;;;;;;;;;40.00;30.00;;;;;11.64;73.82;102426.88;5056062;28;46609;-43
2022/11/10 10:53:08;;;;;;;;;33.00;29.33;;;;;11.71;73.58;102417.47;5055829;28;45537;-42
2022/11/10 10:55:35;;;;;;;;;34.67;27.00;;;;;11.75;73.95;102426.06;5056093;28;45648;-43
2022/11/10 10:58:19;;;;;;;;;28.33;23.33;;;;;11.80;73.55;102415.06;5055929;28;45661;-42
2022/11/10 11:00:55;;;;;;;;;30.00;25.67;;;;;11.77;73.10;102397.50;5055684;28;46304;-42
2022/11/10 11:03:28;;;;;;;;;30.00;28.67;;;;;11.89;73.57;102401.09;5056439;28;46391;-42
2022/11/10 11:06:06;;;;;;;;;25.33;20.67;;;;;11.99;73.14;102407.44;5052877;28;45434;-41
2022/11/10 11:08:32;;;;;;;;;29.33;26.00;;;;;12.13;72.46;102412.56;5055947;28;45519;-41
2022/11/10 11:11:07;;;;;;;;;31.67;27.33;;;;;12.16;73.06;102409.66;5055698;28;46387;-42
2022/11/10 11:13:33;;;;;;;;;31.67;24.67;;;;;12.17;73.18;102406.03;5055139;28;45458;-42
2022/11/10 11:16:02;;;;;;;;;26.33;22.33;;;;;12.22;72.86;102397.69;5055595;28;45465;-43
2022/11/10 11:18:30;;;;;;;;;33.67;25.00;;;;;12.19;72.86;102389.91;5056093;28;45450;-44
2022/11/10 11:20:55;;;;;;;;;26.67;21.00;;;;;12.30;72.79;102397.09;5055775;28;45485;-42
2022/11/10 11:23:29;;;;;;;;;32.33;27.00;;;;;12.34;72.98;102398.56;5054654;28;45518;-42